Buoy 51523

sailwx.info

Track history (hours):
 
Tides and Currents Weather Stations Pressure Air Temp Water Temp Dewpoint Dewpoint Depression Visibility Wind Speed Wind Dir Waves Ship Positions

Drifting buoy 51523

Last reported at 2016-May-27 06:15 UTC. Time now 2016-May-27 08:20 UTC.
Position N 16°55' E 137°24'.

Water temperature 30.4 ° C

Date/timePositionNaut miles runAvg speedWind from/ knotsBaromVisibWave heightAir tempDewpointWater temp
2016-May-27 06:15N 16°55' E 137°24'1 2.2 30.4
2016-May-27 06:00N 16°55' E 137°24'0 0.0 30.5
2016-May-27 04:30N 16°55' E 137°24'0 0.0 30.5
2016-May-27 04:15N 16°55' E 137°24'2 0.6 30.3
2016-May-27 01:15N 16°54' E 137°22'0 0.0 29.6
2016-May-27 00:15N 16°54' E 137°22'0 0.0 29.2
2016-May-26 23:45N 16°54' E 137°22'1 4.8 29.1
2016-May-26 23:30N 16°54' E 137°21'0 0.3 29.0
2016-May-26 22:00N 16°54' E 137°22'1 2.1 29.0
2016-May-26 21:45N 16°54' E 137°21'0 0.0 29.0
2016-May-26 20:30N 16°54' E 137°21'0 0.5 29.0
2016-May-26 20:15N 16°54' E 137°21'0 1.0 29.0
2016-May-26 20:00N 16°54' E 137°21'1 0.5 29.0
2016-May-26 19:00N 16°54' E 137°21'1 3.7 29.0
2016-May-26 18:45N 16°53' E 137°21'0 0.0 29.0
2016-May-26 17:15N 16°53' E 137°21'0 0.0 29.0
2016-May-26 17:00N 16°53' E 137°21'3 0.7 29.0
2016-May-26 13:30N 16°52' E 137°18'1 0.8 29.0
2016-May-26 12:45N 16°52' E 137°18'0 0.0 29.0
2016-May-26 12:00N 16°52' E 137°18'0 0.0 29.0
2016-May-26 11:45N 16°52' E 137°18'2 3.5 29.0
2016-May-26 11:15N 16°51' E 137°16'0 0.0 29.1
2016-May-26 11:00N 16°51' E 137°16'0 0.1 29.1
2016-May-26 09:30N 16°51' E 137°16'0 1.0 29.1
2016-May-26 09:15N 16°51' E 137°16'1 4.5 29.1
2016-May-26 09:00N 16°50' E 137°15'0 0.0 29.1
2016-May-26 08:00N 16°50' E 137°15'0 0.0 29.1
2016-May-26 07:45N 16°50' E 137°15'0 1.2 29.1
2016-May-26 07:30N 16°50' E 137°15'1 1.1 29.1
2016-May-26 06:15N 16°48' E 137°16'0 0.0 29.2
2016-May-26 04:45N 16°48' E 137°16'2 8.2 29.1
2016-May-26 04:30N 16°46' E 137°15'1 0.2 29.1
2016-May-26 01:30N 16°46' E 137°15'0 0.3 29.1
2016-May-26 00:00N 16°46' E 137°15'1 1.0 29.0
2016-May-25 23:00N 16°45' E 137°15'0 0.2 29.0
2016-May-25 22:00N 16°45' E 137°14'0 0.0 29.0
2016-May-25 21:45N 16°45' E 137°14'0 0.6 29.0
2016-May-25 21:00N 16°45' E 137°15'0 1.3 29.0
2016-May-25 20:45N 16°45' E 137°14'1 2.0 29.0
2016-May-25 20:15N 16°44' E 137°15'1 0.8 29.0
2016-May-25 19:15N 16°45' E 137°15'1 5.1 29.0
2016-May-25 19:00N 16°44' E 137°16'0 0.0 29.0
2016-May-25 17:30N 16°44' E 137°16'0 0.0 29.0
2016-May-25 17:15N 16°44' E 137°16'1 0.2 29.0
2016-May-25 13:00N 16°43' E 137°15'0 0.0 28.9
2016-May-25 12:15N 16°43' E 137°15'1 1.7 28.9
2016-May-25 11:30N 16°43' E 137°14'1 4.7 28.9
2016-May-25 11:15N 16°43' E 137°15'1 2.3 28.9
2016-May-25 10:45N 16°43' E 137°14'0 0.0 28.9
2016-May-25 10:30N 16°43' E 137°14'0 0.3 28.9
2016-May-25 10:00N 16°43' E 137°13'1 3.9 28.9
2016-May-25 09:45N 16°42' E 137°14'0 0.0 28.9
2016-May-25 09:30N 16°42' E 137°14'0 0.0 28.9
2016-May-25 09:15N 16°42' E 137°14'1 1.1 28.9
2016-May-25 08:15N 16°41' E 137°13'0 0.0 28.9
2016-May-25 08:00N 16°41' E 137°13'0 0.0 28.9
2016-May-25 07:45N 16°41' E 137°13'0 0.0 28.9
2016-May-25 07:30N 16°41' E 137°13'2 1.8 29.0
2016-May-25 06:30N 16°40' E 137°14'0 0.0 28.9
2016-May-25 05:00N 16°40' E 137°13'3 0.7 29.0
2016-May-25 01:00N 16°37' E 137°13'3 0.7 28.9
2016-May-24 21:30N 16°34' E 137°12'0 0.0 28.8
2016-May-24 21:15N 16°34' E 137°12'1 2.7 28.8
2016-May-24 21:00N 16°34' E 137°13'1 1.2 28.8
2016-May-24 20:30N 16°33' E 137°13'0 0.0 28.8
2016-May-24 20:15N 16°33' E 137°13'0 0.5 28.8
2016-May-24 19:45N 16°33' E 137°13'0 0.0 28.8
2016-May-24 19:30N 16°33' E 137°13'0 0.0 28.8
2016-May-24 19:15N 16°33' E 137°13'2 1.3 28.8
2016-May-24 17:45N 16°31' E 137°14'0 0.0 28.8
2016-May-24 17:30N 16°31' E 137°14'4 2.6 28.9
2016-May-24 16:00N 16°28' E 137°15'0 0.0 28.9
2016-May-24 15:45N 16°28' E 137°15'0 0.0 28.9
2016-May-24 13:30N 16°28' E 137°15'0 0.1 29.0
2016-May-24 12:45N 16°28' E 137°15'0 0.0 29.0
2016-May-24 12:30N 16°28' E 137°15'1 1.7 29.0
2016-May-24 12:00N 16°27' E 137°16'0 0.0 29.0
2016-May-24 11:45N 16°27' E 137°16'2 2.6 29.1
2016-May-24 11:00N 16°25' E 137°16'1 3.6 29.1
2016-May-24 10:45N 16°26' E 137°16'0 0.0 29.1
2016-May-24 10:30N 16°26' E 137°16'1 3.6 29.1
2016-May-24 10:15N 16°25' E 137°16'0 0.1 29.1
2016-May-24 09:30N 16°26' E 137°16'0 0.2 29.2
2016-May-24 08:45N 16°26' E 137°16'0 0.0 29.2
2016-May-24 08:30N 16°26' E 137°16'1 1.6 29.2
2016-May-24 08:00N 16°25' E 137°16'0 0.0 29.2
2016-May-24 07:45N 16°25' E 137°16'1 1.5 29.2
2016-May-24 07:00N 16°24' E 137°16'2 7.5 29.3
2016-May-24 06:45N 16°22' E 137°17'0 0.0 29.3
2016-May-24 06:30N 16°22' E 137°17'0 0.0 29.4
2016-May-24 05:00N 16°22' E 137°17'0 0.0 29.4
2016-May-24 04:45N 16°22' E 137°17'4 1.1 29.4
2016-May-24 01:30N 16°19' E 137°19'1 1.1 29.1
2016-May-24 00:45N 16°18' E 137°19'0 0.0 29.0
2016-May-24 00:30N 16°18' E 137°19'0 0.0 29.0
2016-May-23 23:45N 16°18' E 137°19'0 0.0 29.0
2016-May-23 23:00N 16°18' E 137°19'1 1.2 28.9
2016-May-23 22:00N 16°17' E 137°19'0 0.0 28.8
2016-May-23 21:30N 16°17' E 137°19'0 0.0 28.8
2016-May-23 20:45N 16°17' E 137°19'0 1.6 28.8
2016-May-23 20:30N 16°17' E 137°19'1 4.3 28.8
2016-May-23 20:15N 16°16' E 137°20'0 0.0 28.8
2016-May-23 20:00N 16°16' E 137°20'0 0.0 28.8
2016-May-23 19:45N 16°16' E 137°20'0 0.0 28.8
2016-May-23 17:45N 16°16' E 137°20'1 0.4 28.8
2016-May-23 16:00N 16°15' E 137°20'2 0.7 28.9
2016-May-23 13:00N 16°13' E 137°20'0 1.6 29.0
2016-May-23 12:45N 16°13' E 137°20'1 2.1 29.0
2016-May-23 12:15N 16°12' E 137°20'0 0.0 29.0
2016-May-23 12:00N 16°12' E 137°20'0 0.0 29.0
2016-May-23 11:15N 16°12' E 137°20'2 1.5 29.0
2016-May-23 09:45N 16°10' E 137°20'0 0.0 29.1
2016-May-23 09:15N 16°10' E 137°20'0 0.0 29.1
2016-May-23 09:00N 16°10' E 137°20'1 1.7 29.1
2016-May-23 08:15N 16°09' E 137°20'0 0.0 29.2
2016-May-23 08:00N 16°09' E 137°20'1 3.7 29.2
2016-May-23 07:45N 16°09' E 137°21'1 3.4 29.2
2016-May-23 07:30N 16°08' E 137°20'0 0.0 29.2
2016-May-23 07:15N 16°08' E 137°20'2 1.2 29.2
2016-May-23 05:15N 16°06' E 137°21'519.2 29.2
2016-May-23 05:00N 16°02' E 137°24'0 0.0 29.2
2016-May-23 01:00N 16°02' E 137°24'1 0.6 28.9
2016-May-22 23:30N 16°01' E 137°25'0 0.0 28.7
2016-May-22 23:15N 16°01' E 137°25'1 0.7 28.7
2016-May-22 22:00N 16°00' E 137°25'0 0.0 28.7
2016-May-22 21:45N 16°00' E 137°25'1 1.7 28.7
2016-May-22 21:00N 15°59' E 137°25'0 0.0 28.7
2016-May-22 20:45N 15°59' E 137°25'0 0.0 28.7
2016-May-22 20:30N 15°59' E 137°25'2 1.6 28.7
2016-May-22 19:15N 15°58' E 137°27'0 0.0 28.7
2016-May-22 18:00N 15°58' E 137°27'0 0.0 28.7
2016-May-22 17:45N 15°58' E 137°27'2 1.3 28.7
2016-May-22 16:15N 15°57' E 137°28'3 1.0 28.8
2016-May-22 13:15N 15°54' E 137°31'2 1.5 28.8
2016-May-22 11:45N 15°53' E 137°33'0 0.0 28.8
2016-May-22 11:30N 15°53' E 137°33'1 1.4 28.8
2016-May-22 10:45N 15°52' E 137°33'1 1.4 28.8
2016-May-22 10:00N 15°52' E 137°34'7 1.5 28.9
2016-May-22 05:30N 15°49' E 137°40'310.0 29.0
2016-May-22 05:15N 15°47' E 137°42'0 0.0 29.0
2016-May-22 03:45N 15°47' E 137°42'0 0.0 28.9
2016-May-22 03:30N 15°47' E 137°42'3 1.5 28.9
2016-May-22 01:30N 15°47' E 137°45'2 7.8 28.7
2016-May-22 01:15N 15°46' E 137°47'0 0.0 28.7
2016-May-21 23:45N 15°46' E 137°47'0 0.0 28.7
2016-May-21 23:30N 15°46' E 137°47'0 0.0 28.7
2016-May-21 22:45N 15°46' E 137°47'3 1.5 28.7
2016-May-21 21:00N 15°45' E 137°50'2 8.5 28.6
2016-May-21 20:45N 15°44' E 137°51'0 0.0 28.6
2016-May-21 20:30N 15°44' E 137°51'0 0.0 28.6
2016-May-21 19:45N 15°44' E 137°51'0 0.8 28.6
2016-May-21 19:30N 15°44' E 137°51'0 0.0 28.6
2016-May-21 19:15N 15°44' E 137°51'1 5.8 28.6
2016-May-21 19:00N 15°43' E 137°53'0 0.0 28.6
2016-May-21 18:15N 15°43' E 137°53'0 0.0 28.6
2016-May-21 18:00N 15°43' E 137°53'2 1.6 28.6
2016-May-21 16:30N 15°42' E 137°55'0 0.0 28.7
2016-May-21 16:15N 15°42' E 137°55'5 1.6 28.7
2016-May-21 13:00N 15°40' E 138°00'0 0.7 28.7
2016-May-21 12:45N 15°40' E 138°00'2 2.6 28.7
2016-May-21 12:00N 15°40' E 138°02'0 0.0 28.7
2016-May-21 11:45N 15°40' E 138°02'5 6.1 28.7
2016-May-21 11:00N 15°38' E 138°07'0 0.0 28.7
2016-May-21 10:15N 15°38' E 138°07'0 0.0 28.7
2016-May-21 08:45N 15°38' E 138°07'1 3.3 28.8
2016-May-21 08:30N 15°38' E 138°08'312.6 28.8
2016-May-21 08:15N 15°38' E 138°11'0 0.0 28.9
2016-May-21 08:00N 15°38' E 138°11'0 0.0 28.9
2016-May-21 06:45N 15°38' E 138°11'0 0.0 28.9
2016-May-21 05:45N 15°38' E 138°11'2 6.1 28.9
2016-May-21 05:30N 15°38' E 138°12'0 0.0 28.9
2016-May-21 04:00N 15°38' E 138°12'0 0.0 28.8
2016-May-21 03:45N 15°38' E 138°12'2 1.1 28.8
2016-May-21 01:45N 15°37' E 138°14'310.2 28.7
2016-May-21 01:30N 15°36' E 138°17'2 3.0 28.6
2016-May-21 01:00N 15°37' E 138°16'0 0.5 28.6
2016-May-21 00:45N 15°37' E 138°16'5 2.8 28.6
2016-May-20 23:00N 15°35' E 138°21'0 0.3 28.6
2016-May-20 21:45N 15°35' E 138°20'2 4.4 28.6
2016-May-20 21:15N 15°35' E 138°22'2 8.4 28.6
2016-May-20 21:00N 15°35' E 138°20'2 2.4 28.6
2016-May-20 20:15N 15°35' E 138°22'1 4.9 28.6
2016-May-20 20:00N 15°35' E 138°23'0 0.4 28.6
2016-May-20 19:30N 15°35' E 138°23'2 2.0 28.6
2016-May-20 18:30N 15°34' E 138°25'0 0.0 28.7
2016-May-20 18:15N 15°34' E 138°25'2 1.5 28.7
2016-May-20 16:45N 15°33' E 138°27'0 0.0 28.6
2016-May-20 16:30N 15°33' E 138°27'6 1.4 28.6
2016-May-20 12:30N 15°32' E 138°33'0 0.0 28.7
2016-May-20 12:15N 15°32' E 138°33'1 1.0 28.7
2016-May-20 11:30N 15°32' E 138°34'1 1.2 28.7
2016-May-20 10:45N 15°32' E 138°35'0 0.0 28.7
2016-May-20 10:30N 15°32' E 138°35'2 1.1 28.7
2016-May-20 08:45N 15°32' E 138°37'1 4.4 28.8
2016-May-20 08:30N 15°32' E 138°38'0 0.0 28.8
2016-May-20 07:30N 15°32' E 138°38'1 1.4 28.9
2016-May-20 07:00N 15°31' E 138°38'3 2.1 28.9
2016-May-20 05:45N 15°30' E 138°40'0 0.0 28.9
2016-May-20 05:30N 15°30' E 138°40'0 0.0 28.9
2016-May-20 04:15N 15°30' E 138°40'0 0.0 28.9
2016-May-20 04:00N 15°30' E 138°40'3 1.2 28.9
2016-May-20 01:15N 15°29' E 138°43'5 5.3 28.7
2016-May-20 00:15N 15°26' E 138°48'0 0.0 28.6
2016-May-19 23:30N 15°26' E 138°48'0 0.0 28.6
2016-May-19 22:45N 15°26' E 138°48'1 0.8 28.5
2016-May-19 21:30N 15°26' E 138°49'0 0.0 28.5
2016-May-19 21:15N 15°26' E 138°49'0 0.0 28.5
2016-May-19 20:45N 15°26' E 138°49'1 1.5 28.5
2016-May-19 20:00N 15°25' E 138°50'2 9.4 28.5
2016-May-19 19:45N 15°25' E 138°52'0 0.0 28.5
2016-May-19 19:00N 15°25' E 138°52'1 2.9 28.5
2016-May-19 18:30N 15°25' E 138°54'0 0.0 28.5
2016-May-19 17:00N 15°25' E 138°54'415.0 28.5
2016-May-19 16:45N 15°24' E 138°58'0 0.1 28.5
2016-May-19 12:45N 15°24' E 138°58'1 1.1 28.6
2016-May-19 12:00N 15°24' E 138°59'0 0.0 28.6
2016-May-19 11:45N 15°24' E 138°59'0 0.0 28.6
2016-May-19 11:00N 15°24' E 138°59'1 0.5 28.6
2016-May-19 09:45N 15°24' E 138°60'0 0.0 28.8
2016-May-19 09:30N 15°24' E 138°60'1 2.1 28.8
2016-May-19 09:15N 15°24' E 138°60'0 0.3 28.8
2016-May-19 09:00N 15°24' E 139°00'0 0.0 28.8
2016-May-19 08:45N 15°24' E 139°00'1 1.1 28.8
2016-May-19 08:00N 15°23' E 139°01'0 0.0 28.9
2016-May-19 07:30N 15°23' E 139°01'0 1.4 28.9
2016-May-19 07:15N 15°24' E 139°01'0 0.0 28.9
2016-May-19 07:00N 15°24' E 139°01'1 1.0 28.9
2016-May-19 06:00N 15°23' E 139°02'0 0.0 29.0
2016-May-19 05:45N 15°23' E 139°02'2 1.3 29.0
2016-May-19 04:15N 15°22' E 139°04'4 1.2 28.9
2016-May-19 00:45N 15°20' E 139°07'2 1.1 28.7
2016-May-18 23:00N 15°20' E 139°09'1 1.0 28.6
2016-May-18 22:00N 15°19' E 139°10'0 0.0 28.6
2016-May-18 21:45N 15°19' E 139°10'0 0.0 28.6
2016-May-18 21:30N 15°19' E 139°10'1 1.0 28.6
2016-May-18 20:15N 15°19' E 139°11'1 2.2 28.6
2016-May-18 20:00N 15°19' E 139°12'0 0.0 28.6
2016-May-18 19:45N 15°19' E 139°12'1 4.7 28.6
2016-May-18 19:30N 15°19' E 139°13'0 0.0 28.6
2016-May-18 18:45N 15°19' E 139°13'2 1.2 28.6
2016-May-18 17:00N 15°18' E 139°15'3 0.8 28.6
2016-May-18 13:00N 15°17' E 139°18'2 2.1 28.7
2016-May-18 12:00N 15°17' E 139°21'0 0.2 28.8
2016-May-18 11:30N 15°17' E 139°21'0 0.0 28.8
2016-May-18 11:15N 15°17' E 139°21'2 1.3 28.9
2016-May-18 09:30N 15°17' E 139°23'0 0.0 28.9
2016-May-18 09:15N 15°17' E 139°23'0 0.0 29.0
2016-May-18 09:00N 15°17' E 139°23'1 2.3 29.0
2016-May-18 08:30N 15°17' E 139°24'0 0.0 29.1
2016-May-18 07:45N 15°17' E 139°24'1 2.8 29.1
2016-May-18 07:30N 15°16' E 139°25'0 0.0 29.1
2016-May-18 07:15N 15°16' E 139°25'2 1.6 29.2
2016-May-18 06:00N 15°16' E 139°27'8 1.7 29.2
2016-May-18 01:15N 15°15' E 139°35'0 0.0 28.7
2016-May-18 01:00N 15°15' E 139°35'1 1.7 28.6
2016-May-18 00:15N 15°15' E 139°37'0 0.0 28.6
2016-May-18 00:00N 15°15' E 139°37'1 2.6 28.6
2016-May-17 23:30N 15°15' E 139°35'1 5.1 28.5
2016-May-17 23:15N 15°15' E 139°37'0 0.2 28.5
2016-May-17 21:45N 15°15' E 139°37'2 1.9 28.5
2016-May-17 20:45N 15°14' E 139°39'0 0.0 28.5
2016-May-17 20:30N 15°14' E 139°39'1 2.5 28.5
2016-May-17 20:15N 15°15' E 139°39'1 4.6 28.5
2016-May-17 20:00N 15°15' E 139°40'1 1.2 28.5
2016-May-17 19:00N 15°15' E 139°42'0 0.0 28.5
2016-May-17 18:45N 15°15' E 139°42'3 1.9 28.5
2016-May-17 17:15N 15°13' E 139°44'0 0.0 28.5
2016-May-17 17:00N 15°13' E 139°44'0 0.0 28.5
2016-May-17 13:15N 15°13' E 139°44'1 0.7 28.7
2016-May-17 12:30N 15°13' E 139°44'0 0.0 28.7
2016-May-17 11:45N 15°13' E 139°44'0 0.0 28.7
2016-May-17 11:30N 15°13' E 139°44'0 0.9 28.8
2016-May-17 11:00N 15°12' E 139°45'0 0.0 28.8
2016-May-17 10:45N 15°12' E 139°45'3 2.3 28.8
2016-May-17 09:15N 15°11' E 139°48'0 0.0 28.9
2016-May-17 09:00N 15°11' E 139°48'1 1.1 28.9
2016-May-17 08:15N 15°10' E 139°48'0 0.0 29.0
2016-May-17 08:00N 15°10' E 139°48'1 2.7 29.0
2016-May-17 07:30N 15°10' E 139°50'2 1.6 29.0
2016-May-17 06:15N 15°09' E 139°52'   29.1
Track history (hours):
 
Tides and Currents Weather Stations Pressure Air Temp Water Temp Dewpoint Dewpoint Depression Visibility Wind Speed Wind Dir Waves Ship Positions

Drifting buoy 51523

Last reported at 2016-May-27 06:15 UTC. Time now 2016-May-27 08:20 UTC.
Position N 16°55' E 137°24'.

Water temperature 30.4 ° C

Date/timePositionNaut miles runAvg speedWind from/ knotsBaromVisibWave heightAir tempDewpointWater temp
2016-May-27 06:15N 16°55' E 137°24'1 2.2 30.4
2016-May-27 06:00N 16°55' E 137°24'0 0.0 30.5
2016-May-27 04:30N 16°55' E 137°24'0 0.0 30.5
2016-May-27 04:15N 16°55' E 137°24'2 0.6 30.3
2016-May-27 01:15N 16°54' E 137°22'0 0.0 29.6
2016-May-27 00:15N 16°54' E 137°22'0 0.0 29.2
2016-May-26 23:45N 16°54' E 137°22'1 4.8 29.1
2016-May-26 23:30N 16°54' E 137°21'0 0.3 29.0
2016-May-26 22:00N 16°54' E 137°22'1 2.1 29.0
2016-May-26 21:45N 16°54' E 137°21'0 0.0 29.0
2016-May-26 20:30N 16°54' E 137°21'0 0.5 29.0
2016-May-26 20:15N 16°54' E 137°21'0 1.0 29.0
2016-May-26 20:00N 16°54' E 137°21'1 0.5 29.0
2016-May-26 19:00N 16°54' E 137°21'1 3.7 29.0
2016-May-26 18:45N 16°53' E 137°21'0 0.0 29.0
2016-May-26 17:15N 16°53' E 137°21'0 0.0 29.0
2016-May-26 17:00N 16°53' E 137°21'3 0.7 29.0
2016-May-26 13:30N 16°52' E 137°18'1 0.8 29.0
2016-May-26 12:45N 16°52' E 137°18'0 0.0 29.0
2016-May-26 12:00N 16°52' E 137°18'0 0.0 29.0
2016-May-26 11:45N 16°52' E 137°18'2 3.5 29.0
2016-May-26 11:15N 16°51' E 137°16'0 0.0 29.1
2016-May-26 11:00N 16°51' E 137°16'0 0.1 29.1
2016-May-26 09:30N 16°51' E 137°16'0 1.0 29.1
2016-May-26 09:15N 16°51' E 137°16'1 4.5 29.1
2016-May-26 09:00N 16°50' E 137°15'0 0.0 29.1
2016-May-26 08:00N 16°50' E 137°15'0 0.0 29.1
2016-May-26 07:45N 16°50' E 137°15'0 1.2 29.1
2016-May-26 07:30N 16°50' E 137°15'1 1.1 29.1
2016-May-26 06:15N 16°48' E 137°16'0 0.0 29.2
2016-May-26 04:45N 16°48' E 137°16'2 8.2 29.1
2016-May-26 04:30N 16°46' E 137°15'1 0.2 29.1
2016-May-26 01:30N 16°46' E 137°15'0 0.3 29.1
2016-May-26 00:00N 16°46' E 137°15'1 1.0 29.0
2016-May-25 23:00N 16°45' E 137°15'0 0.2 29.0
2016-May-25 22:00N 16°45' E 137°14'0 0.0 29.0
2016-May-25 21:45N 16°45' E 137°14'0 0.6 29.0
2016-May-25 21:00N 16°45' E 137°15'0 1.3 29.0
2016-May-25 20:45N 16°45' E 137°14'1 2.0 29.0
2016-May-25 20:15N 16°44' E 137°15'1 0.8 29.0
2016-May-25 19:15N 16°45' E 137°15'1 5.1 29.0
2016-May-25 19:00N 16°44' E 137°16'0 0.0 29.0
2016-May-25 17:30N 16°44' E 137°16'0 0.0 29.0
2016-May-25 17:15N 16°44' E 137°16'1 0.2 29.0
2016-May-25 13:00N 16°43' E 137°15'0 0.0 28.9
2016-May-25 12:15N 16°43' E 137°15'1 1.7 28.9
2016-May-25 11:30N 16°43' E 137°14'1 4.7 28.9
2016-May-25 11:15N 16°43' E 137°15'1 2.3 28.9
2016-May-25 10:45N 16°43' E 137°14'0 0.0 28.9
2016-May-25 10:30N 16°43' E 137°14'0 0.3 28.9
2016-May-25 10:00N 16°43' E 137°13'1 3.9 28.9
2016-May-25 09:45N 16°42' E 137°14'0 0.0 28.9
2016-May-25 09:30N 16°42' E 137°14'0 0.0 28.9
2016-May-25 09:15N 16°42' E 137°14'1 1.1 28.9
2016-May-25 08:15N 16°41' E 137°13'0 0.0 28.9
2016-May-25 08:00N 16°41' E 137°13'0 0.0 28.9
2016-May-25 07:45N 16°41' E 137°13'0 0.0 28.9
2016-May-25 07:30N 16°41' E 137°13'2 1.8 29.0
2016-May-25 06:30N 16°40' E 137°14'0 0.0 28.9
2016-May-25 05:00N 16°40' E 137°13'3 0.7 29.0
2016-May-25 01:00N 16°37' E 137°13'3 0.7 28.9
2016-May-24 21:30N 16°34' E 137°12'0 0.0 28.8
2016-May-24 21:15N 16°34' E 137°12'1 2.7 28.8
2016-May-24 21:00N 16°34' E 137°13'1 1.2 28.8
2016-May-24 20:30N 16°33' E 137°13'0 0.0 28.8
2016-May-24 20:15N 16°33' E 137°13'0 0.5 28.8
2016-May-24 19:45N 16°33' E 137°13'0 0.0 28.8
2016-May-24 19:30N 16°33' E 137°13'0 0.0 28.8
2016-May-24 19:15N 16°33' E 137°13'2 1.3 28.8
2016-May-24 17:45N 16°31' E 137°14'0 0.0 28.8
2016-May-24 17:30N 16°31' E 137°14'4 2.6 28.9
2016-May-24 16:00N 16°28' E 137°15'0 0.0 28.9
2016-May-24 15:45N 16°28' E 137°15'0 0.0 28.9
2016-May-24 13:30N 16°28' E 137°15'0 0.1 29.0
2016-May-24 12:45N 16°28' E 137°15'0 0.0 29.0
2016-May-24 12:30N 16°28' E 137°15'1 1.7 29.0
2016-May-24 12:00N 16°27' E 137°16'0 0.0 29.0
2016-May-24 11:45N 16°27' E 137°16'2 2.6 29.1
2016-May-24 11:00N 16°25' E 137°16'1 3.6 29.1
2016-May-24 10:45N 16°26' E 137°16'0 0.0 29.1
2016-May-24 10:30N 16°26' E 137°16'1 3.6 29.1
2016-May-24 10:15N 16°25' E 137°16'0 0.1 29.1
2016-May-24 09:30N 16°26' E 137°16'0 0.2 29.2
2016-May-24 08:45N 16°26' E 137°16'0 0.0 29.2
2016-May-24 08:30N 16°26' E 137°16'1 1.6 29.2
2016-May-24 08:00N 16°25' E 137°16'0 0.0 29.2
2016-May-24 07:45N 16°25' E 137°16'1 1.5 29.2
2016-May-24 07:00N 16°24' E 137°16'2 7.5 29.3
2016-May-24 06:45N 16°22' E 137°17'0 0.0 29.3
2016-May-24 06:30N 16°22' E 137°17'0 0.0 29.4
2016-May-24 05:00N 16°22' E 137°17'0 0.0 29.4
2016-May-24 04:45N 16°22' E 137°17'4 1.1 29.4
2016-May-24 01:30N 16°19' E 137°19'1 1.1 29.1
2016-May-24 00:45N 16°18' E 137°19'0 0.0 29.0
2016-May-24 00:30N 16°18' E 137°19'0 0.0 29.0
2016-May-23 23:45N 16°18' E 137°19'0 0.0 29.0
2016-May-23 23:00N 16°18' E 137°19'1 1.2 28.9
2016-May-23 22:00N 16°17' E 137°19'0 0.0 28.8
2016-May-23 21:30N 16°17' E 137°19'0 0.0 28.8
2016-May-23 20:45N 16°17' E 137°19'0 1.6 28.8
2016-May-23 20:30N 16°17' E 137°19'1 4.3 28.8
2016-May-23 20:15N 16°16' E 137°20'0 0.0 28.8
2016-May-23 20:00N 16°16' E 137°20'0 0.0 28.8
2016-May-23 19:45N 16°16' E 137°20'0 0.0 28.8
2016-May-23 17:45N 16°16' E 137°20'1 0.4 28.8
2016-May-23 16:00N 16°15' E 137°20'2 0.7 28.9
2016-May-23 13:00N 16°13' E 137°20'0 1.6 29.0
2016-May-23 12:45N 16°13' E 137°20'1 2.1 29.0
2016-May-23 12:15N 16°12' E 137°20'0 0.0 29.0
2016-May-23 12:00N 16°12' E 137°20'0 0.0 29.0
2016-May-23 11:15N 16°12' E 137°20'2 1.5 29.0
2016-May-23 09:45N 16°10' E 137°20'0 0.0 29.1
2016-May-23 09:15N 16°10' E 137°20'0 0.0 29.1
2016-May-23 09:00N 16°10' E 137°20'1 1.7 29.1
2016-May-23 08:15N 16°09' E 137°20'0 0.0 29.2
2016-May-23 08:00N 16°09' E 137°20'1 3.7 29.2
2016-May-23 07:45N 16°09' E 137°21'1 3.4 29.2
2016-May-23 07:30N 16°08' E 137°20'0 0.0 29.2
2016-May-23 07:15N 16°08' E 137°20'2 1.2 29.2
2016-May-23 05:15N 16°06' E 137°21'519.2 29.2
2016-May-23 05:00N 16°02' E 137°24'0 0.0 29.2
2016-May-23 01:00N 16°02' E 137°24'1 0.6 28.9
2016-May-22 23:30N 16°01' E 137°25'0 0.0 28.7
2016-May-22 23:15N 16°01' E 137°25'1 0.7 28.7
2016-May-22 22:00N 16°00' E 137°25'0 0.0 28.7
2016-May-22 21:45N 16°00' E 137°25'1 1.7 28.7
2016-May-22 21:00N 15°59' E 137°25'0 0.0 28.7
2016-May-22 20:45N 15°59' E 137°25'0 0.0 28.7
2016-May-22 20:30N 15°59' E 137°25'2 1.6 28.7
2016-May-22 19:15N 15°58' E 137°27'0 0.0 28.7
2016-May-22 18:00N 15°58' E 137°27'0 0.0 28.7
2016-May-22 17:45N 15°58' E 137°27'2 1.3 28.7
2016-May-22 16:15N 15°57' E 137°28'3 1.0 28.8
2016-May-22 13:15N 15°54' E 137°31'2 1.5 28.8
2016-May-22 11:45N 15°53' E 137°33'0 0.0 28.8
2016-May-22 11:30N 15°53' E 137°33'1 1.4 28.8
2016-May-22 10:45N 15°52' E 137°33'1 1.4 28.8
2016-May-22 10:00N 15°52' E 137°34'7 1.5 28.9
2016-May-22 05:30N 15°49' E 137°40'310.0 29.0
2016-May-22 05:15N 15°47' E 137°42'0 0.0 29.0
2016-May-22 03:45N 15°47' E 137°42'0 0.0 28.9
2016-May-22 03:30N 15°47' E 137°42'3 1.5 28.9
2016-May-22 01:30N 15°47' E 137°45'2 7.8 28.7
2016-May-22 01:15N 15°46' E 137°47'0 0.0 28.7
2016-May-21 23:45N 15°46' E 137°47'0 0.0 28.7
2016-May-21 23:30N 15°46' E 137°47'0 0.0 28.7
2016-May-21 22:45N 15°46' E 137°47'3 1.5 28.7
2016-May-21 21:00N 15°45' E 137°50'2 8.5 28.6
2016-May-21 20:45N 15°44' E 137°51'0 0.0 28.6
2016-May-21 20:30N 15°44' E 137°51'0 0.0 28.6
2016-May-21 19:45N 15°44' E 137°51'0 0.8 28.6
2016-May-21 19:30N 15°44' E 137°51'0 0.0 28.6
2016-May-21 19:15N 15°44' E 137°51'1 5.8 28.6
2016-May-21 19:00N 15°43' E 137°53'0 0.0 28.6
2016-May-21 18:15N 15°43' E 137°53'0 0.0 28.6
2016-May-21 18:00N 15°43' E 137°53'2 1.6 28.6
2016-May-21 16:30N 15°42' E 137°55'0 0.0 28.7
2016-May-21 16:15N 15°42' E 137°55'5 1.6 28.7
2016-May-21 13:00N 15°40' E 138°00'0 0.7 28.7
2016-May-21 12:45N 15°40' E 138°00'2 2.6 28.7
2016-May-21 12:00N 15°40' E 138°02'0 0.0 28.7
2016-May-21 11:45N 15°40' E 138°02'5 6.1 28.7
2016-May-21 11:00N 15°38' E 138°07'0 0.0 28.7
2016-May-21 10:15N 15°38' E 138°07'0 0.0 28.7
2016-May-21 08:45N 15°38' E 138°07'1 3.3 28.8
2016-May-21 08:30N 15°38' E 138°08'312.6 28.8
2016-May-21 08:15N 15°38' E 138°11'0 0.0 28.9
2016-May-21 08:00N 15°38' E 138°11'0 0.0 28.9
2016-May-21 06:45N 15°38' E 138°11'0 0.0 28.9
2016-May-21 05:45N 15°38' E 138°11'2 6.1 28.9
2016-May-21 05:30N 15°38' E 138°12'0 0.0 28.9
2016-May-21 04:00N 15°38' E 138°12'0 0.0 28.8
2016-May-21 03:45N 15°38' E 138°12'2 1.1 28.8
2016-May-21 01:45N 15°37' E 138°14'310.2 28.7
2016-May-21 01:30N 15°36' E 138°17'2 3.0 28.6
2016-May-21 01:00N 15°37' E 138°16'0 0.5 28.6
2016-May-21 00:45N 15°37' E 138°16'5 2.8 28.6
2016-May-20 23:00N 15°35' E 138°21'0 0.3 28.6
2016-May-20 21:45N 15°35' E 138°20'2 4.4 28.6
2016-May-20 21:15N 15°35' E 138°22'2 8.4 28.6
2016-May-20 21:00N 15°35' E 138°20'2 2.4 28.6
2016-May-20 20:15N 15°35' E 138°22'1 4.9 28.6
2016-May-20 20:00N 15°35' E 138°23'0 0.4 28.6
2016-May-20 19:30N 15°35' E 138°23'2 2.0 28.6
2016-May-20 18:30N 15°34' E 138°25'0 0.0 28.7
2016-May-20 18:15N 15°34' E 138°25'2 1.5 28.7
2016-May-20 16:45N 15°33' E 138°27'0 0.0 28.6
2016-May-20 16:30N 15°33' E 138°27'6 1.4 28.6
2016-May-20 12:30N 15°32' E 138°33'0 0.0 28.7
2016-May-20 12:15N 15°32' E 138°33'1 1.0 28.7
2016-May-20 11:30N 15°32' E 138°34'1 1.2 28.7
2016-May-20 10:45N 15°32' E 138°35'0 0.0 28.7
2016-May-20 10:30N 15°32' E 138°35'2 1.1 28.7
2016-May-20 08:45N 15°32' E 138°37'1 4.4 28.8
2016-May-20 08:30N 15°32' E 138°38'0 0.0 28.8
2016-May-20 07:30N 15°32' E 138°38'1 1.4 28.9
2016-May-20 07:00N 15°31' E 138°38'3 2.1 28.9
2016-May-20 05:45N 15°30' E 138°40'0 0.0 28.9
2016-May-20 05:30N 15°30' E 138°40'0 0.0 28.9
2016-May-20 04:15N 15°30' E 138°40'0 0.0 28.9
2016-May-20 04:00N 15°30' E 138°40'3 1.2 28.9
2016-May-20 01:15N 15°29' E 138°43'5 5.3 28.7
2016-May-20 00:15N 15°26' E 138°48'0 0.0 28.6
2016-May-19 23:30N 15°26' E 138°48'0 0.0 28.6
2016-May-19 22:45N 15°26' E 138°48'1 0.8 28.5
2016-May-19 21:30N 15°26' E 138°49'0 0.0 28.5
2016-May-19 21:15N 15°26' E 138°49'0 0.0 28.5
2016-May-19 20:45N 15°26' E 138°49'1 1.5 28.5
2016-May-19 20:00N 15°25' E 138°50'2 9.4 28.5
2016-May-19 19:45N 15°25' E 138°52'0 0.0 28.5
2016-May-19 19:00N 15°25' E 138°52'1 2.9 28.5
2016-May-19 18:30N 15°25' E 138°54'0 0.0 28.5
2016-May-19 17:00N 15°25' E 138°54'415.0 28.5
2016-May-19 16:45N 15°24' E 138°58'0 0.1 28.5
2016-May-19 12:45N 15°24' E 138°58'1 1.1 28.6
2016-May-19 12:00N 15°24' E 138°59'0 0.0 28.6
2016-May-19 11:45N 15°24' E 138°59'0 0.0 28.6
2016-May-19 11:00N 15°24' E 138°59'1 0.5 28.6
2016-May-19 09:45N 15°24' E 138°60'0 0.0 28.8
2016-May-19 09:30N 15°24' E 138°60'1 2.1 28.8
2016-May-19 09:15N 15°24' E 138°60'0 0.3 28.8
2016-May-19 09:00N 15°24' E 139°00'0 0.0 28.8
2016-May-19 08:45N 15°24' E 139°00'1 1.1 28.8
2016-May-19 08:00N 15°23' E 139°01'0 0.0 28.9
2016-May-19 07:30N 15°23' E 139°01'0 1.4 28.9
2016-May-19 07:15N 15°24' E 139°01'0 0.0 28.9
2016-May-19 07:00N 15°24' E 139°01'1 1.0 28.9
2016-May-19 06:00N 15°23' E 139°02'0 0.0 29.0
2016-May-19 05:45N 15°23' E 139°02'2 1.3 29.0
2016-May-19 04:15N 15°22' E 139°04'4 1.2 28.9
2016-May-19 00:45N 15°20' E 139°07'2 1.1 28.7
2016-May-18 23:00N 15°20' E 139°09'1 1.0 28.6
2016-May-18 22:00N 15°19' E 139°10'0 0.0 28.6
2016-May-18 21:45N 15°19' E 139°10'0 0.0 28.6
2016-May-18 21:30N 15°19' E 139°10'1 1.0 28.6
2016-May-18 20:15N 15°19' E 139°11'1 2.2 28.6
2016-May-18 20:00N 15°19' E 139°12'0 0.0 28.6
2016-May-18 19:45N 15°19' E 139°12'1 4.7 28.6
2016-May-18 19:30N 15°19' E 139°13'0 0.0 28.6
2016-May-18 18:45N 15°19' E 139°13'2 1.2 28.6
2016-May-18 17:00N 15°18' E 139°15'3 0.8 28.6
2016-May-18 13:00N 15°17' E 139°18'2 2.1 28.7
2016-May-18 12:00N 15°17' E 139°21'0 0.2 28.8
2016-May-18 11:30N 15°17' E 139°21'0 0.0 28.8
2016-May-18 11:15N 15°17' E 139°21'2 1.3 28.9
2016-May-18 09:30N 15°17' E 139°23'0 0.0 28.9
2016-May-18 09:15N 15°17' E 139°23'0 0.0 29.0
2016-May-18 09:00N 15°17' E 139°23'1 2.3 29.0
2016-May-18 08:30N 15°17' E 139°24'0 0.0 29.1
2016-May-18 07:45N 15°17' E 139°24'1 2.8 29.1
2016-May-18 07:30N 15°16' E 139°25'0 0.0 29.1
2016-May-18 07:15N 15°16' E 139°25'2 1.6 29.2
2016-May-18 06:00N 15°16' E 139°27'8 1.7 29.2
2016-May-18 01:15N 15°15' E 139°35'0 0.0 28.7
2016-May-18 01:00N 15°15' E 139°35'1 1.7 28.6
2016-May-18 00:15N 15°15' E 139°37'0 0.0 28.6
2016-May-18 00:00N 15°15' E 139°37'1 2.6 28.6
2016-May-17 23:30N 15°15' E 139°35'1 5.1 28.5
2016-May-17 23:15N 15°15' E 139°37'0 0.2 28.5
2016-May-17 21:45N 15°15' E 139°37'2 1.9 28.5
2016-May-17 20:45N 15°14' E 139°39'0 0.0 28.5
2016-May-17 20:30N 15°14' E 139°39'1 2.5 28.5
2016-May-17 20:15N 15°15' E 139°39'1 4.6 28.5
2016-May-17 20:00N 15°15' E 139°40'1 1.2 28.5
2016-May-17 19:00N 15°15' E 139°42'0 0.0 28.5
2016-May-17 18:45N 15°15' E 139°42'3 1.9 28.5
2016-May-17 17:15N 15°13' E 139°44'0 0.0 28.5
2016-May-17 17:00N 15°13' E 139°44'0 0.0 28.5
2016-May-17 13:15N 15°13' E 139°44'1 0.7 28.7
2016-May-17 12:30N 15°13' E 139°44'0 0.0 28.7
2016-May-17 11:45N 15°13' E 139°44'0 0.0 28.7
2016-May-17 11:30N 15°13' E 139°44'0 0.9 28.8
2016-May-17 11:00N 15°12' E 139°45'0 0.0 28.8
2016-May-17 10:45N 15°12' E 139°45'3 2.3 28.8
2016-May-17 09:15N 15°11' E 139°48'0 0.0 28.9
2016-May-17 09:00N 15°11' E 139°48'1 1.1 28.9
2016-May-17 08:15N 15°10' E 139°48'0 0.0 29.0
2016-May-17 08:00N 15°10' E 139°48'1 2.7 29.0
2016-May-17 07:30N 15°10' E 139°50'2 1.6 29.0
2016-May-17 06:15N 15°09' E 139°52'   29.1

Dump ship's entire track history